Sawpit, Colorado
Current Conditions -  °F | °C
As of 3:35 PM on Monday 20 Oct 2014 (Local Time) from KTEX Reporting Station
Scattered Clouds Scattered Clouds  
Wind Chill: 59°   Ceiling: Unl
Heat Index: 59°   Visibility: 10mi
Dew Point: 35°   Wind: 10mph
Humidity: 40%   Direction: 270°W
Pressure: 30.3"   Gusts: 17mph
Location:  37.9189°N, 107.878°W
Report Text: KTEX 202135Z AUTO 27009G15KT 10SM SCT070 SCT090 15/01 A3030 RMK AO2 T01510014
Loading
Personal Weather Stations






























Interactive Weather Map
Tropical Storm Tracking
New forecast layout! Learn more

10-Day Weather Forecast

Advertisements
Track Severe Weather on mobile